createdAt,value
2023-05-05T00:01:02.193Z,98263.53
2023-05-05T00:03:30.275Z,98258.50
2023-05-05T00:05:58.820Z,98262.97
2023-05-05T00:08:29.500Z,98258.28
2023-05-05T00:10:57.608Z,98262.81
2023-05-05T00:13:25.675Z,98258.03
2023-05-05T00:15:54.521Z,98250.19
2023-05-05T00:18:22.281Z,98243.72
2023-05-05T00:20:50.162Z,98246.47
2023-05-05T00:23:18.384Z,98247.78
2023-05-05T00:25:47.872Z,98247.78
2023-05-05T00:28:15.686Z,98255.75
2023-05-05T00:30:43.497Z,98247.69
2023-05-05T00:33:11.456Z,98248.50
2023-05-05T00:35:39.150Z,98256.34
2023-05-05T00:38:06.786Z,98249.63
2023-05-05T00:40:34.611Z,98255.91
2023-05-05T00:43:03.762Z,98246.03
2023-05-05T00:45:31.702Z,98241.97
2023-05-05T00:48:01.222Z,98238.09
2023-05-05T00:50:30.845Z,98233.84
2023-05-05T00:53:01.671Z,98231.72
2023-05-05T00:55:29.988Z,98238.53
2023-05-05T00:57:58.078Z,98234.66
2023-05-05T01:00:28.176Z,98231.53
2023-05-05T01:02:56.127Z,98228.19
2023-05-05T01:05:25.847Z,98221.75
2023-05-05T01:08:07.421Z,98223.63
2023-05-05T01:10:39.467Z,98213.72
2023-05-05T01:13:20.357Z,98223.44
2023-05-05T01:15:54.188Z,98228.44
2023-05-05T01:18:32.526Z,98234.00
2023-05-05T01:21:07.780Z,98229.88
2023-05-05T01:23:56.069Z,98224.75
2023-05-05T01:26:42.040Z,98218.50
2023-05-05T01:29:30.986Z,98219.88
2023-05-05T01:32:03.486Z,98211.94
2023-05-05T01:34:37.410Z,98208.84
2023-05-05T01:37:10.898Z,98216.59
2023-05-05T01:39:39.754Z,98213.88
2023-05-05T01:42:13.806Z,98220.81
2023-05-05T01:44:43.885Z,98223.56
2023-05-05T01:47:14.672Z,98218.63
2023-05-05T01:49:46.622Z,98218.09
2023-05-05T01:52:15.897Z,98214.84
2023-05-05T01:54:46.087Z,98209.25
2023-05-05T01:57:15.521Z,98209.03
2023-05-05T01:59:43.672Z,98205.38
2023-05-05T02:02:14.183Z,98212.00
2023-05-05T02:04:44.283Z,98218.06
2023-05-05T02:07:13.716Z,98217.66
2023-05-05T02:09:43.660Z,98214.03
2023-05-05T02:12:13.183Z,98214.97
2023-05-05T02:14:43.894Z,98222.38
2023-05-05T02:17:14.195Z,98220.94
2023-05-05T02:19:45.424Z,98225.28
2023-05-05T02:22:16.509Z,98221.88
2023-05-05T02:24:44.993Z,98231.81
2023-05-05T02:27:13.374Z,98226.09
2023-05-05T02:29:48.672Z,98234.41
2023-05-05T02:32:29.464Z,98224.59
2023-05-05T02:35:00.156Z,98227.34
2023-05-05T02:37:31.015Z,98223.00
2023-05-05T02:40:03.889Z,98220.88
2023-05-05T02:42:38.045Z,98208.56
2023-05-05T02:45:11.206Z,98214.53
2023-05-05T02:47:40.421Z,98209.97
2023-05-05T02:50:09.517Z,98214.72
2023-05-05T02:52:38.307Z,98216.13
2023-05-05T02:55:08.149Z,98227.75
2023-05-05T02:57:39.807Z,98218.16
2023-05-05T03:00:11.999Z,98211.56
2023-05-05T03:02:45.960Z,98213.13
2023-05-05T03:05:20.877Z,98203.81
2023-05-05T03:07:55.947Z,98201.59
2023-05-05T03:10:31.559Z,98209.06
2023-05-05T03:13:03.310Z,98212.50
2023-05-05T03:15:33.438Z,98224.88
2023-05-05T03:18:04.924Z,98210.94
2023-05-05T03:20:33.668Z,98201.22
2023-05-05T03:23:02.569Z,98200.44
2023-05-05T03:25:46.466Z,98195.97
2023-05-05T03:28:15.859Z,98188.94
2023-05-05T03:30:44.960Z,98193.47
2023-05-05T03:33:15.387Z,98198.72
2023-05-05T03:35:43.348Z,98210.09
2023-05-05T03:38:13.716Z,98205.19
2023-05-05T03:40:44.654Z,98199.44
2023-05-05T03:43:14.733Z,98197.63
2023-05-05T03:45:42.504Z,98198.81
2023-05-05T03:48:10.522Z,98212.94
2023-05-05T03:50:39.740Z,98206.19
2023-05-05T03:53:07.648Z,98205.94
2023-05-05T03:55:37.339Z,98220.38
2023-05-05T03:58:06.284Z,98208.97
2023-05-05T04:00:34.240Z,98212.25
2023-05-05T04:03:03.398Z,98197.84
2023-05-05T04:05:32.234Z,98206.50
2023-05-05T04:08:02.070Z,98201.03
2023-05-05T04:11:11.390Z,98206.94
2023-05-05T04:14:07.853Z,98214.88
2023-05-05T04:16:37.090Z,98215.91
2023-05-05T04:19:07.164Z,98214.44
2023-05-05T04:21:37.887Z,98226.25
2023-05-05T04:24:08.652Z,98223.19
2023-05-05T04:26:37.404Z,98219.41
2023-05-05T04:29:05.057Z,98215.03
2023-05-05T04:31:33.524Z,98225.44
2023-05-05T04:34:03.015Z,98215.72
2023-05-05T04:36:30.761Z,98214.78
2023-05-05T04:39:00.557Z,98220.00
2023-05-05T04:41:30.169Z,98214.28
2023-05-05T04:43:58.671Z,98216.31
2023-05-05T04:46:27.002Z,98215.63
2023-05-05T04:48:55.680Z,98226.03
2023-05-05T04:51:23.464Z,98230.28
2023-05-05T04:53:52.210Z,98221.84
2023-05-05T04:56:24.058Z,98227.41
2023-05-05T04:58:56.621Z,98227.41
2023-05-05T05:01:28.118Z,98234.13
2023-05-05T05:03:59.031Z,98230.25
2023-05-05T05:06:27.585Z,98239.16
2023-05-05T05:08:56.824Z,98239.72
2023-05-05T05:11:27.339Z,98246.66
2023-05-05T05:13:58.902Z,98253.03
2023-05-05T05:16:29.975Z,98260.84
2023-05-05T05:19:00.174Z,98267.34
2023-05-05T05:21:34.548Z,98271.16
2023-05-05T05:24:06.934Z,98267.25
2023-05-05T05:26:38.844Z,98273.13
2023-05-05T05:29:14.420Z,98267.06
2023-05-05T05:32:19.819Z,98267.59
2023-05-05T05:37:51.636Z,98260.06
2023-05-05T05:40:21.378Z,98258.34
2023-05-05T05:42:49.979Z,98260.50
2023-05-05T05:45:20.280Z,98260.66
2023-05-05T05:47:50.052Z,98254.88
2023-05-05T05:50:19.012Z,98259.78
2023-05-05T06:07:07.679Z,98267.50
2023-05-05T06:09:35.804Z,98269.59
2023-05-05T06:12:06.424Z,98272.03
2023-05-05T06:22:42.959Z,98265.69
2023-05-05T06:25:11.027Z,98265.72
2023-05-05T06:27:38.752Z,98265.94
2023-05-05T06:30:09.896Z,98266.19
2023-05-05T06:32:38.484Z,98265.84
2023-05-05T06:35:07.434Z,98261.03
2023-05-05T06:37:35.907Z,98260.50
2023-05-05T06:40:06.865Z,98264.47
2023-05-05T06:42:38.712Z,98256.22
2023-05-05T06:45:07.333Z,98249.16
2023-05-05T06:47:35.954Z,98258.28
2023-05-05T06:50:05.459Z,98259.31
2023-05-05T06:52:33.556Z,98259.91
2023-05-05T06:55:01.583Z,98254.16
2023-05-05T06:57:33.248Z,98247.81
2023-05-05T07:00:01.917Z,98244.44
2023-05-05T07:02:32.302Z,98248.25
2023-05-05T07:05:01.068Z,98250.06
2023-05-05T07:07:28.784Z,98244.44
2023-05-05T07:09:56.525Z,98247.47
2023-05-05T07:15:26.045Z,98244.88
2023-05-05T07:17:55.015Z,98237.19
2023-05-05T07:20:26.248Z,98234.16
2023-05-05T07:22:54.366Z,98233.91
2023-05-05T07:25:26.828Z,98239.69
2023-05-05T07:28:01.058Z,98247.16
2023-05-05T07:30:28.846Z,98235.16
2023-05-05T07:35:39.584Z,98238.41
2023-05-05T07:38:13.421Z,98242.34
2023-05-05T07:40:48.648Z,98240.75
2023-05-05T07:43:19.100Z,98249.03
2023-05-05T07:45:56.754Z,98245.03
2023-05-05T07:48:31.987Z,98247.06
2023-05-05T07:51:00.523Z,98240.00
2023-05-05T07:53:31.478Z,98234.53
2023-05-05T07:55:59.278Z,98231.00
2023-05-05T07:58:35.571Z,98233.13
2023-05-05T08:01:08.932Z,98232.53
2023-05-05T08:03:37.225Z,98227.19
2023-05-05T08:06:19.444Z,98234.63
2023-05-05T08:08:48.970Z,98231.06
2023-05-05T08:11:16.780Z,98244.00
2023-05-05T08:13:46.469Z,98237.63
2023-05-05T08:16:17.600Z,98236.59
2023-05-05T08:18:53.522Z,98230.03
2023-05-05T08:21:21.287Z,98243.94
2023-05-05T08:23:49.061Z,98235.19
2023-05-05T08:26:20.650Z,98233.13
2023-05-05T08:28:50.010Z,98235.66
2023-05-05T08:31:19.295Z,98235.66
2023-05-05T08:33:48.249Z,98235.38
2023-05-05T08:36:16.376Z,98229.50
2023-05-05T08:38:44.145Z,98228.47
2023-05-05T08:41:22.847Z,98229.25
2023-05-05T08:43:52.859Z,98227.28
2023-05-05T08:46:21.236Z,98230.50
2023-05-05T08:48:49.805Z,98233.34
2023-05-05T10:31:13.155Z,98171.28
2023-05-05T10:33:55.359Z,98178.75
2023-05-05T10:36:24.779Z,98171.13
2023-05-05T10:38:56.605Z,98173.31
2023-05-05T10:41:26.044Z,98165.09
2023-05-05T10:43:56.240Z,98169.16
2023-05-05T10:46:24.685Z,98169.16
2023-05-05T10:49:01.049Z,98163.84
2023-05-05T10:51:40.655Z,98160.19
2023-05-05T10:54:15.088Z,98161.34
2023-05-05T10:56:44.550Z,98139.72
2023-05-05T10:59:43.846Z,98147.00
2023-05-05T11:02:26.062Z,98143.22
2023-05-05T11:05:14.917Z,98144.16
2023-05-05T11:07:43.501Z,98134.00
2023-05-05T11:10:12.506Z,98131.09
2023-05-05T11:13:24.681Z,98121.66
2023-05-05T11:15:56.997Z,98112.00
2023-05-05T11:18:37.854Z,98106.44
2023-05-05T11:21:15.726Z,98113.38
2023-05-05T11:23:45.955Z,98101.75
2023-05-05T11:26:16.477Z,98098.25
2023-05-05T11:28:59.473Z,98091.47
2023-05-05T11:31:28.142Z,98096.44
2023-05-05T11:34:29.394Z,98093.28
2023-05-05T11:37:10.652Z,98084.16
2023-05-05T11:39:55.103Z,98084.75
2023-05-05T11:42:31.295Z,98083.94
2023-05-05T11:45:02.338Z,98089.75
2023-05-05T11:47:32.688Z,98087.41
2023-05-05T11:50:23.478Z,98082.94
2023-05-05T11:52:59.656Z,98076.59
2023-05-05T11:55:28.024Z,98080.22
2023-05-05T11:57:58.117Z,98083.09
2023-05-05T12:00:37.220Z,98101.22
2023-05-05T12:03:08.163Z,98102.81
2023-05-05T12:05:37.214Z,98101.31
2023-05-05T12:08:10.717Z,98107.03
2023-05-05T12:10:43.142Z,98103.72
2023-05-05T12:13:24.313Z,98100.00
2023-05-05T12:15:54.148Z,98104.34
2023-05-05T12:18:23.513Z,98108.63
2023-05-05T12:20:53.738Z,98104.22
2023-05-05T12:23:28.529Z,98110.25
2023-05-05T12:25:59.516Z,98110.41
2023-05-05T12:28:44.388Z,98101.44
2023-05-05T12:31:15.936Z,98101.66
2023-05-05T12:33:44.957Z,98103.56
2023-05-05T12:36:13.634Z,98099.38
2023-05-05T12:38:47.450Z,98100.84
2023-05-05T12:41:24.859Z,98104.28
2023-05-05T12:43:59.834Z,98096.41
2023-05-05T12:46:29.947Z,98093.63
2023-05-05T12:49:12.451Z,98096.72
2023-05-05T12:51:53.814Z,98094.81
2023-05-05T12:54:29.505Z,98096.84
2023-05-05T12:56:58.560Z,98100.13
2023-05-05T12:59:30.831Z,98088.81
2023-05-05T13:02:01.284Z,98100.00
2023-05-05T13:04:29.400Z,98089.88
2023-05-05T13:07:11.901Z,98091.00
2023-05-05T13:09:41.482Z,98088.72
2023-05-05T13:12:12.421Z,98081.28
2023-05-05T13:14:41.005Z,98088.34
2023-05-05T13:17:08.807Z,98093.16
2023-05-05T13:19:41.724Z,98080.72
2023-05-05T13:22:10.928Z,98092.00
2023-05-05T13:24:50.840Z,98080.59
2023-05-05T13:27:21.969Z,98083.13
2023-05-05T13:29:50.012Z,98075.72
2023-05-05T13:32:18.309Z,98083.19
2023-05-05T13:34:46.000Z,98076.91
2023-05-05T13:37:13.663Z,98077.00
2023-05-05T13:39:41.401Z,98072.97
2023-05-05T13:42:09.697Z,98072.78
2023-05-05T13:44:39.321Z,98073.78
2023-05-05T13:47:07.516Z,98076.38
2023-05-05T13:49:35.966Z,98068.97
2023-05-05T13:52:03.660Z,98071.38
2023-05-05T13:54:31.659Z,98074.16
2023-05-05T13:57:00.048Z,98062.66
2023-05-05T13:59:28.405Z,98069.56
2023-05-05T14:01:57.788Z,98064.84
2023-05-05T14:04:25.917Z,98060.16
2023-05-05T14:06:54.753Z,98056.16
2023-05-05T14:09:22.586Z,98059.06
2023-05-05T14:11:50.278Z,98051.94
2023-05-05T14:14:18.033Z,98047.09
2023-05-05T14:16:47.849Z,98056.03
2023-05-05T14:19:18.499Z,98044.53
2023-05-05T14:21:46.527Z,98047.19
2023-05-05T14:24:14.215Z,98037.06
2023-05-05T14:26:41.932Z,98025.25
2023-05-05T14:29:09.662Z,98036.47
2023-05-05T14:31:37.419Z,98035.91
2023-05-05T14:34:05.517Z,98041.50
2023-05-05T14:36:34.970Z,98044.81
2023-05-05T14:39:02.716Z,98046.53
2023-05-05T14:41:30.375Z,98044.53
2023-05-05T14:43:59.189Z,98044.81
2023-05-05T14:46:27.865Z,98041.22
2023-05-05T14:48:55.693Z,98040.66
2023-05-05T14:51:23.487Z,98041.69
2023-05-05T14:53:52.520Z,98043.00
2023-05-05T14:56:21.861Z,98033.16
2023-05-05T14:58:49.646Z,98040.78
2023-05-05T15:01:17.532Z,98042.47
2023-05-05T15:03:45.436Z,98042.91
2023-05-05T15:06:15.209Z,98040.34
2023-05-05T15:08:43.233Z,98037.41
2023-05-05T15:11:12.358Z,98039.41
2023-05-05T15:13:41.450Z,98036.56
2023-05-05T15:16:09.577Z,98036.56
2023-05-05T15:18:37.441Z,98038.44
2023-05-05T15:21:05.569Z,98033.31
2023-05-05T15:23:33.330Z,98029.31
2023-05-05T15:26:01.296Z,98035.13
2023-05-05T15:28:30.404Z,98035.34
2023-05-05T15:31:01.784Z,98022.78
2023-05-05T15:33:30.186Z,98015.72
2023-05-05T15:35:58.027Z,98015.41
2023-05-05T15:38:25.822Z,98014.72
2023-05-05T15:40:53.516Z,98015.25
2023-05-05T15:43:21.219Z,98015.81
2023-05-05T15:45:50.275Z,98012.19
2023-05-05T15:48:17.974Z,98014.50
2023-05-05T15:50:45.657Z,98011.19
2023-05-05T15:53:13.403Z,98002.16
2023-05-05T15:55:41.648Z,98006.28
2023-05-05T15:58:09.401Z,98005.53
2023-05-05T16:00:37.313Z,97996.59
2023-05-05T16:03:06.569Z,98004.41
2023-05-05T16:05:34.444Z,98000.47
2023-05-05T16:08:02.185Z,98008.44
2023-05-05T16:10:32.830Z,97996.56
2023-05-05T16:13:00.695Z,98001.34
2023-05-05T16:15:28.547Z,98003.81
2023-05-05T16:17:56.231Z,98002.56
2023-05-05T16:20:25.314Z,98004.53
2023-05-05T16:22:53.035Z,98005.69
2023-05-05T16:25:20.923Z,97999.91
2023-05-05T16:27:48.658Z,98006.28
2023-05-05T16:30:17.061Z,97998.38
2023-05-05T16:32:47.536Z,97996.00
2023-05-05T16:35:15.456Z,97990.09
2023-05-05T16:37:44.610Z,97998.38
2023-05-05T16:40:14.508Z,97994.44
2023-05-05T16:42:44.353Z,97992.97
2023-05-05T16:45:13.448Z,97985.09
2023-05-05T16:47:41.200Z,97981.91
2023-05-05T16:50:09.840Z,97984.31
2023-05-05T16:52:37.892Z,97983.44
2023-05-05T16:55:07.991Z,97989.72
2023-05-05T16:57:35.994Z,97992.97
2023-05-05T17:00:03.798Z,98000.91
2023-05-05T17:02:31.501Z,98000.97
2023-05-05T17:04:59.475Z,98001.88
2023-05-05T17:07:27.458Z,97996.38
2023-05-05T17:09:55.215Z,97997.16
2023-05-05T17:12:25.651Z,97993.22
2023-05-05T17:14:53.593Z,97988.50
2023-05-05T17:17:21.333Z,97982.53
2023-05-05T17:19:49.052Z,97980.63
2023-05-05T17:22:17.896Z,97975.94
2023-05-05T17:24:46.071Z,97963.72
2023-05-05T17:27:14.880Z,97967.31
2023-05-05T17:29:44.798Z,97962.56
2023-05-05T17:32:12.602Z,97964.84
2023-05-05T17:34:41.858Z,97970.47
2023-05-05T17:37:10.094Z,97961.78
2023-05-05T17:39:37.804Z,97967.47
2023-05-05T17:42:06.294Z,97970.66
2023-05-05T17:44:33.966Z,97967.19
2023-05-05T17:47:04.004Z,97970.00
2023-05-05T17:49:33.240Z,97973.06
2023-05-05T17:52:02.586Z,97960.38
2023-05-05T17:54:30.330Z,97967.53
2023-05-05T17:57:00.742Z,97960.53
2023-05-05T17:59:29.778Z,97951.19
2023-05-05T18:01:57.742Z,97944.50
2023-05-05T18:04:27.100Z,97937.88
2023-05-05T18:06:56.037Z,97940.19
2023-05-05T18:09:24.668Z,97937.00
2023-05-05T18:11:53.433Z,97936.69
2023-05-05T18:14:22.497Z,97943.03
2023-05-05T18:16:52.441Z,97944.97
2023-05-05T18:19:22.288Z,97945.72
2023-05-05T18:21:52.522Z,97947.75
2023-05-05T18:24:20.753Z,97952.94
2023-05-05T18:26:50.536Z,97962.41
2023-05-05T18:29:20.576Z,97953.75
2023-05-05T18:31:51.770Z,97958.53
2023-05-05T18:34:22.031Z,97951.47
2023-05-05T18:36:54.219Z,97948.31
2023-05-05T18:39:22.495Z,97955.47
2023-05-05T18:41:50.392Z,97953.16
2023-05-05T18:44:19.639Z,97957.91
2023-05-05T18:46:48.969Z,97966.25
2023-05-05T18:49:17.234Z,97969.78
2023-05-05T18:51:46.252Z,97969.06
2023-05-05T18:54:15.424Z,97978.50
2023-05-05T18:56:45.130Z,97979.69
2023-05-05T18:59:13.012Z,97985.59
2023-05-05T19:01:44.120Z,97988.75
2023-05-05T19:04:26.836Z,97999.81
2023-05-05T19:06:58.876Z,98010.09
2023-05-05T19:09:32.747Z,98005.44
2023-05-05T19:12:02.454Z,98014.94
2023-05-05T19:14:34.181Z,98033.09
2023-05-05T19:17:03.670Z,98037.03
2023-05-05T19:19:37.771Z,98050.53
2023-05-05T19:22:07.673Z,98060.41
2023-05-05T19:24:40.579Z,98064.03
2023-05-05T19:27:14.754Z,98105.13
2023-05-05T19:29:44.816Z,98108.31
2023-05-05T19:32:14.564Z,98110.94
2023-05-05T19:34:45.246Z,98116.69
2023-05-05T19:37:14.657Z,98120.50
2023-05-05T19:39:49.086Z,98120.06
2023-05-05T19:42:18.591Z,98128.28
2023-05-05T19:44:48.153Z,98129.09
2023-05-05T19:47:16.964Z,98130.31
2023-05-05T19:49:45.452Z,98134.63
2023-05-05T19:52:13.970Z,98151.13
2023-05-05T19:54:48.419Z,98161.75
2023-05-05T19:57:18.197Z,98163.69
2023-05-05T19:59:47.154Z,98159.69
2023-05-05T20:02:23.980Z,98166.34
2023-05-05T20:04:57.914Z,98165.13
2023-05-05T20:07:26.627Z,98173.31
2023-05-05T20:09:58.814Z,98170.13
2023-05-05T20:12:27.054Z,98172.88
2023-05-05T20:14:57.186Z,98172.81
2023-05-05T20:17:31.388Z,98171.28
2023-05-05T20:20:02.115Z,98167.25
2023-05-05T20:22:31.094Z,98165.69
2023-05-05T20:25:01.414Z,98161.75
2023-05-05T20:27:32.961Z,98157.81
2023-05-05T20:30:05.125Z,98160.09
2023-05-05T20:32:34.902Z,98161.63
2023-05-05T20:35:04.667Z,98151.81
2023-05-05T20:37:33.870Z,98153.72
2023-05-05T20:40:06.298Z,98148.97
2023-05-05T20:42:37.077Z,98145.81
2023-05-05T20:45:08.323Z,98136.44
2023-05-05T20:47:38.552Z,98138.72
2023-05-05T20:50:13.496Z,98140.25
2023-05-05T20:52:42.290Z,98130.03
2023-05-05T20:55:20.223Z,98137.88
2023-05-05T20:57:55.853Z,98140.25
2023-05-05T21:00:28.383Z,98135.50
2023-05-05T21:02:58.973Z,98137.44
2023-05-05T21:05:28.042Z,98150.44
2023-05-05T21:08:01.318Z,98144.47
2023-05-05T21:10:33.342Z,98141.63
2023-05-05T21:13:02.357Z,98148.00
2023-05-05T21:15:34.656Z,98139.28
2023-05-05T21:18:07.903Z,98134.63
2023-05-05T21:20:36.889Z,98139.34
2023-05-05T21:23:04.888Z,98137.66
2023-05-05T21:25:34.570Z,98140.09
2023-05-05T21:28:10.497Z,98140.13
2023-05-05T21:30:39.410Z,98141.72
2023-05-05T21:33:07.589Z,98144.78
2023-05-05T21:35:39.084Z,98148.28
2023-05-05T21:38:08.280Z,98149.47
2023-05-05T21:40:37.639Z,98146.28
2023-05-05T21:43:08.321Z,98144.69
2023-05-05T21:45:38.066Z,98138.41
2023-05-05T21:48:11.986Z,98143.13
2023-05-05T21:50:43.025Z,98142.38
2023-05-05T21:53:10.963Z,98143.13
2023-05-05T21:55:42.895Z,98139.28
2023-05-05T21:58:13.618Z,98138.88
2023-05-05T22:00:44.597Z,98135.16
2023-05-05T22:03:27.984Z,98124.09
2023-05-05T22:05:56.876Z,98123.25
2023-05-05T22:08:25.747Z,98131.22
2023-05-05T22:10:55.237Z,98136.81
2023-05-05T22:13:23.753Z,98130.06
2023-05-05T22:15:55.308Z,98141.38
2023-05-05T22:18:23.293Z,98132.72
2023-05-05T22:20:51.544Z,98139.09
2023-05-05T22:23:20.594Z,98133.66
2023-05-05T22:25:49.174Z,98136.81
2023-05-05T22:28:18.816Z,98142.47
2023-05-05T22:30:46.993Z,98149.53
2023-05-05T22:33:17.583Z,98146.38
2023-05-05T22:35:45.520Z,98144.84
2023-05-05T22:38:14.696Z,98143.16
2023-05-05T22:40:51.032Z,98143.97
2023-05-05T22:43:28.863Z,98139.94
2023-05-05T22:46:01.451Z,98140.72
2023-05-05T22:48:31.296Z,98138.41
2023-05-05T22:50:59.947Z,98146.97
2023-05-05T22:53:29.589Z,98138.31
2023-05-05T22:56:01.813Z,98138.41
2023-05-05T22:58:32.659Z,98138.78
2023-05-05T23:01:00.983Z,98137.63
2023-05-05T23:03:30.482Z,98136.13
2023-05-05T23:05:59.311Z,98135.38
2023-05-05T23:08:28.767Z,98140.03
2023-05-05T23:10:57.743Z,98138.41
2023-05-05T23:13:27.689Z,98141.47
2023-05-05T23:15:57.468Z,98136.41
2023-05-05T23:18:26.735Z,98136.72
2023-05-05T23:20:55.705Z,98133.50
2023-05-05T23:23:25.160Z,98129.56
2023-05-05T23:25:55.265Z,98124.16
2023-05-05T23:28:26.002Z,98122.97
2023-05-05T23:30:56.288Z,98135.88
2023-05-05T23:33:27.265Z,98131.97
2023-05-05T23:35:55.407Z,98131.22
2023-05-05T23:38:23.822Z,98139.81
2023-05-05T23:40:53.138Z,98136.56
2023-05-05T23:43:25.985Z,98135.84
2023-05-05T23:45:54.200Z,98131.97
2023-05-05T23:48:22.172Z,98131.56
2023-05-05T23:50:53.564Z,98137.06
2023-05-05T23:53:21.562Z,98133.16
2023-05-05T23:55:51.993Z,98143.72
2023-05-05T23:58:22.548Z,98147.56
